Flight Track Log - Related Links

Times and Time Zones

All times are in EDT time to prevent confusion due to time zone crossing. See the ASQ5678 flight status page for this flight to view local times or setup timezone preferences in your user account.

Time Position Orientation Groundspeed Altitude Reporting Facility
EDT Latitude Longitude Course Direction KTS MPH feet Rate Location/Type
Sun 08:41:31 AM 40.7167 -74.1500 270° West 156 180 1,100  Level New York TRACON
Sun 08:42:25 AM 40.7500 -74.1500 360° North 186 214 2,500 1,842 Climbing New York TRACON
Sun 08:43:25 AM 40.7500 -74.2333 270° West 222 255 4,600 2,200 Climbing New York TRACON
Sun 08:44:25 AM 40.7333 -74.3167 255° West 236 272 6,900 2,050 Climbing New York TRACON
Sun 08:45:00 AM 40.6834 -74.7722 270° West  Level FlightAware Approximate
Sun 08:45:25 AM 40.7333 -74.4000 270° West 262 302 8,700  Level New York TRACON
Sun 08:46:00 AM 40.6833 -74.9236 270° West  Level FlightAware Approximate
Sun 08:46:39 AM 40.7211 -74.5114 262° West 269 310 10,800  Level New York Center
Sun 08:47:39 AM 40.7153 -74.6286 266° West 292 336 11,700 1,100 Climbing New York Center
Sun 08:48:39 AM 40.7069 -74.7514 265° West 329 379 13,000 1,350 Climbing New York Center
Sun 08:49:39 AM 40.6986 -74.8769 265° West 334 384 14,400 1,400 Climbing New York Center
Sun 08:50:39 AM 40.6900 -74.9994 265° West 334 384 15,800 1,350 Climbing New York Center
Sun 08:51:39 AM 40.6692 -75.1158 257° West 339 390 17,100 1,150 Climbing New York Center
Sun 08:52:39 AM 40.6217 -75.2139 237° Southwest 339 390 18,100 1,000 Climbing New York Center
Sun 08:53:39 AM 40.5669 -75.3361 240° Southwest 355 409 19,100 1,050 Climbing New York Center
Sun 08:54:39 AM 40.5147 -75.4475 238° Southwest 355 409 20,200 1,050 Climbing New York Center
Sun 08:55:39 AM 40.4667 -75.5533 239° Southwest 362 417 21,200 1,100 Climbing New York Center
Sun 08:56:39 AM 40.4164 -75.6669 240° Southwest 372 428 22,400 1,200 Climbing New York Center
Sun 08:57:39 AM 40.3636 -75.7775 238° Southwest 372 428 23,600 1,200 Climbing New York Center
Sun 08:58:39 AM 40.3150 -75.8911 241° Southwest 372 428 24,800 1,150 Climbing New York Center
Sun 08:59:39 AM 40.2844 -76.0169 252° West 367 422 25,900 1,150 Climbing New York Center
Sun 09:00:39 AM 40.2644 -76.1378 258° West 350 403 27,100 1,150 Climbing New York Center
Sun 09:01:39 AM 40.2342 -76.2522 251° West 350 403 28,200 1,041 Climbing New York Center
Sun 09:02:40 AM 40.1933 -76.3686 245° Southwest 344 396 29,200 1,050 Climbing New York Center
Sun 09:03:39 AM 40.1547 -76.4769 245° Southwest 344 396 30,300 2,488 Climbing New York Center
Sun 09:05:24 AM 40.0836 -76.6842 246° West 346 398 36,000 1,037 Climbing Washington Center
Sun 09:06:21 AM 40.0450 -76.7975 246° West 346 398 33,100 -966 Descending Washington Center
Sun 09:07:22 AM 40.0044 -76.9078 244° Southwest 346 398 34,100 1,180 Climbing Washington Center
Sun 09:08:23 AM 39.9656 -77.0181 245° Southwest 340 391 35,500 934 Climbing Washington Center
Sun 09:09:24 AM 39.9289 -77.1283 247° West 335 386 36,000 254 Climbing Washington Center
Sun 09:10:21 AM 39.8878 -77.2408 245° Southwest 340 391 36,000  Level Washington Center
Sun 09:11:23 AM 39.8467 -77.3617 246° West 348 400 36,000  Level Washington Center
Sun 09:12:24 AM 39.8008 -77.4847 244° Southwest 366 421 36,000  Level Washington Center
Sun 09:13:24 AM 39.7572 -77.6131 246° West 383 441 36,000  Level Washington Center
Sun 09:14:23 AM 39.7111 -77.7439 245° Southwest 388 447 36,000  Level Washington Center
Sun 09:15:23 AM 39.6650 -77.8694 245° Southwest 393 452 36,000  Level Washington Center
Sun 09:16:24 AM 39.6189 -77.9972 245° Southwest 393 452 36,000  Level Washington Center
Sun 09:17:22 AM 39.5725 -78.1250 245° Southwest 393 452 36,000  Level Washington Center
Sun 09:18:23 AM 39.5258 -78.2550 245° Southwest 393 452 36,000  Level Washington Center
Sun 09:19:23 AM 39.4792 -78.3825 245° Southwest 398 458 36,000  Level Washington Center
Sun 09:20:24 AM 39.4325 -78.5069 244° Southwest 398 458 36,000  Level Washington Center
Sun 09:21:21 AM 39.3856 -78.6367 245° Southwest 398 458 36,000 -203 Level Washington Center
Sun 09:22:22 AM 39.3364 -78.7608 243° Southwest 398 458 35,600 -496 Descending Washington Center
Sun 09:23:22 AM 39.2914 -78.8928 246° West 398 458 35,000 -295 Descending Washington Center
Sun 09:24:24 AM 39.2419 -79.0192 243° Southwest 398 458 35,000  Level Washington Center
Sun 09:25:22 AM 39.1922 -79.1481 244° Southwest 398 458 35,000  Level Washington Center
Sun 09:26:22 AM 39.1514 -79.2639 246° West 398 458 35,000  Level Washington Center
Sun 09:27:23 AM 39.1036 -79.3925 244° Southwest 398 458 35,000  Level Washington Center
Sun 09:28:24 AM 39.0558 -79.5183 244° Southwest 398 458 35,000  Level Washington Center
Sun 09:29:22 AM 39.0056 -79.6492 244° Southwest 404 465 35,000  Level Washington Center
Sun 09:30:23 AM 38.9572 -79.7775 244° Southwest 404 465 35,000  Level Washington Center
Sun 09:31:24 AM 38.9044 -79.9158 244° Southwest 404 465 35,000  Level Washington Center
Sun 09:32:51 AM 38.8275 -80.0978 242° Southwest 397 457 35,000  Level Indianapolis Center
Sun 09:33:52 AM 38.8147 -80.2353 263° West 387 445 35,000  Level Indianapolis Center
Sun 09:34:54 AM 38.8103 -80.3758 268° West 390 449 35,000  Level Indianapolis Center
Sun 09:35:56 AM 38.8075 -80.5175 269° West 392 451 35,000  Level Indianapolis Center
Sun 09:36:58 AM 38.8022 -80.6600 267° West 396 456 35,000  Level Indianapolis Center
Sun 09:38:00 AM 38.7983 -80.8017 268° West 396 456 35,000  Level Indianapolis Center
Sun 09:39:02 AM 38.7939 -80.9453 268° West 398 458 35,000  Level Indianapolis Center
Sun 09:40:04 AM 38.7886 -81.1169 268° West 399 459 35,000 -244 Level Indianapolis Center
Sun 09:41:05 AM 38.7844 -81.2617 268° West 406 467 34,500 -732 Descending Indianapolis Center
Sun 09:42:07 AM 38.7797 -81.4044 268° West 406 467 33,500 -1,065 Descending Indianapolis Center
Sun 09:43:09 AM 38.7736 -81.5664 267° West 406 467 32,300 -1,104 Descending Indianapolis Center
Sun 09:44:12 AM 38.7681 -81.7200 267° West 411 473 31,200 -1,016 Descending Indianapolis Center
Sun 09:45:13 AM 38.7617 -81.8653 267° West 412 474 30,200 -1,024 Descending Indianapolis Center
Sun 09:46:15 AM 38.7542 -82.0125 266° West 413 475 29,100 -1,016 Descending Indianapolis Center
Sun 09:47:17 AM 38.7194 -82.1606 253° West 431 496 28,100 -1,016 Descending Indianapolis Center
Sun 09:48:19 AM 38.6803 -82.3078 251° West 434 499 27,000 -1,065 Descending Indianapolis Center
Sun 09:49:21 AM 38.6394 -82.4586 251° West 444 511 25,900 -1,065 Descending Indianapolis Center
Sun 09:50:23 AM 38.5933 -82.6303 251° West 444 511 24,800 -1,065 Descending Indianapolis Center
Sun 09:51:25 AM 38.5544 -82.7736 251° West 433 498 23,700 -1,065 Descending Indianapolis Center
Sun 09:52:27 AM 38.5172 -82.9131 251° West 421 484 22,600 -823 Descending Indianapolis Center
Sun 09:53:29 AM 38.4786 -83.0525 251° West 421 484 22,000 -290 Descending Indianapolis Center
Sun 09:54:31 AM 38.4758 -83.2158 269° West 407 468 22,000 -1,065 Level Indianapolis Center
Sun 09:55:33 AM 38.5017 -83.3550 283° West 407 468 19,800 -2,516 Descending Indianapolis Center
Sun 09:56:35 AM 38.5289 -83.4886 285° West 397 457 16,800 -2,855 Descending Indianapolis Center
Sun 09:57:37 AM 38.5550 -83.6197 284° West 390 449 13,900 -2,468 Descending Indianapolis Center
Sun 09:58:39 AM 38.5786 -83.7422 284° West 369 425 11,700 -1,839 Descending Indianapolis Center
Sun 09:59:41 AM 38.6042 -83.8781 284° West 348 400 10,100 -823 Descending Indianapolis Center
Sun 10:00:43 AM 38.6550 -83.9692 306° West 337 388 10,000 -48 Descending Indianapolis Center
Sun 10:01:45 AM 38.7236 -84.0517 317° Northwest 338 389 10,000  Level Indianapolis Center
Sun 10:02:47 AM 38.7900 -84.1328 316° Northwest 335 386 10,000 -48 Level Indianapolis Center
Sun 10:03:49 AM 38.8533 -84.2100 316° Northwest 329 379 9,900 -677 Descending Indianapolis Center
Sun 10:04:51 AM 38.9036 -84.2689 318° Northwest 291 335 8,600 -1,306 Descending Indianapolis Center
Sun 10:05:53 AM 38.9497 -84.3233 317° Northwest 246 283 7,200 -1,113 Descending Indianapolis Center
Sun 10:06:55 AM 39.0111 -84.3972 317° Northwest 246 283 6,300 -919 Descending Indianapolis Center
Sun 10:07:57 AM 39.0647 -84.4628 316° Northwest 260 299 5,300 -677 Descending Indianapolis Center
Sun 10:08:59 AM 39.1161 -84.5261 316° Northwest 258 297 4,900 -871 Descending Indianapolis Center
Sun 10:10:01 AM 39.1569 -84.5797 314° West 227 261 3,500 -1,131 Descending Indianapolis Center
Sun 10:11:54 AM 39.1000 -84.6500 224° Southwest 115 132 1,600 -1,009 Descending Cincinnati TRACON

Login

Don't have an account? Register now (free) for customized features, flight alerts, and more!